Time;durP1;ratioP1;P1;durP2;ratioP2;P2;SDS_P1;SDS_P2;PMS_P1;PMS_P2;Temp;Humidity;BMP_temperature;BMP_pressure;BME280_temperature;BME280_humidity;BME280_pressure;Samples;Min_cycle;Max_cycle;Signal;HPM_P1;HPM_P2
2023/11/11 00:01:55;;;;;;;;;;;;;;;4.31;85.87;99912.17;106175;1257;124788;-86
2023/11/11 00:04:22;;;;;;;;;;;;;;;4.28;85.80;99911.92;106431;1258;72255;-87
2023/11/11 00:06:49;;;;;;;;;;;;;;;4.27;85.89;99909.09;106084;1262;125306;-87
2023/11/11 00:09:16;;;;;;;;;;;;;;;4.26;86.15;99914.26;106384;1263;62052;-87
2023/11/11 00:11:44;;;;;;;;;;;;;;;4.25;86.15;99917.53;106211;1261;124995;-87
2023/11/11 00:14:11;;;;;;;;;;;;;;;4.24;86.16;99915.91;106310;1257;66317;-88
2023/11/11 00:16:38;;;;;;;;;;;;;;;4.24;86.26;99921.33;106340;1264;72441;-87
2023/11/11 00:19:06;;;;;;;;;;;;;;;4.23;86.25;99922.84;106243;1258;124911;-87
2023/11/11 00:21:41;;;;;;;;;;;;;;;4.22;86.28;99929.90;106420;1257;62098;-87
2023/11/11 00:24:09;;;;;;;;;;;;;;;4.19;86.32;99925.11;106222;1261;125901;-86
2023/11/11 00:26:36;;;;;;;;;;;;;;;4.18;86.23;99925.40;106418;1258;66005;-87
2023/11/11 00:29:03;;;;;;;;;;;;;;;4.14;86.20;99925.11;106430;1260;72768;-87
2023/11/11 00:31:31;;;;;;;;;;;;;;;4.11;86.26;99922.55;106122;1263;124961;-87
2023/11/11 00:33:59;;;;;;;;;;;;;;;4.09;86.31;99923.54;106374;1260;62036;-86
2023/11/11 00:36:26;;;;;;;;;;;;;;;4.07;86.24;99922.59;106295;1263;125138;-87
2023/11/11 00:38:53;;;;;;;;;;;;;;;4.06;86.31;99925.49;106373;1264;66244;-87
2023/11/11 00:41:20;;;;;;;;;;;;;;;4.05;86.46;99921.64;106271;1260;72450;-87
2023/11/11 00:43:47;;;;;;;;;;;;;;;4.03;86.41;99922.09;106289;1260;124951;-87
2023/11/11 00:46:13;;;;;;;;;;;;;;;4.00;86.23;99922.50;106534;1258;62134;-86
2023/11/11 00:48:41;;;;;;;;;;;;;;;3.96;86.20;99926.33;106280;1261;124860;-86
2023/11/11 00:51:07;;;;;;;;;;;;;;;3.94;86.22;99925.88;106214;1263;67809;-86
2023/11/11 00:53:34;;;;;;;;;;;;;;;3.93;86.44;99929.69;106168;1258;125023;-86
2023/11/11 00:56:02;;;;;;;;;;;;;;;3.90;86.37;99934.63;106475;1259;60114;-87
2023/11/11 00:58:30;;;;;;;;;;;;;;;3.88;86.42;99933.85;106325;1259;62196;-86
2023/11/11 01:00:56;;;;;;;;;;;;;;;3.87;86.54;99938.50;106427;1260;125131;-86
2023/11/11 01:03:23;;;;;;;;;;;;;;;3.87;86.62;99940.60;106550;1257;65926;-86
2023/11/11 01:05:50;;;;;;;;;;;;;;;3.86;86.58;99937.58;106239;1264;125413;-87
2023/11/11 01:08:16;;;;;;;;;;;;;;;3.86;86.56;99935.32;106433;1259;60077;-88
2023/11/11 01:10:43;;;;;;;;;;;;;;;3.84;86.56;99937.52;106260;1260;60729;-88
2023/11/11 01:13:11;;;;;;;;;;;;;;;3.83;86.54;99933.84;106313;1263;124914;-88
2023/11/11 01:15:38;;;;;;;;;;;;;;;3.81;86.62;99939.48;106475;1261;63920;-88
2023/11/11 01:18:05;;;;;;;;;;;;;;;3.81;86.62;99941.73;106306;1263;125805;-86
2023/11/11 01:20:31;;;;;;;;;;;;;;;3.80;86.76;99938.23;106421;1258;62137;-87
2023/11/11 01:22:58;;;;;;;;;;;;;;;3.79;86.76;99938.36;106404;1259;62071;-86
2023/11/11 01:25:26;;;;;;;;;;;;;;;3.78;86.68;99932.39;106323;1261;124840;-87
2023/11/11 01:27:53;;;;;;;;;;;;;;;3.76;86.67;99939.27;106298;1260;65356;-86
2023/11/11 01:30:19;;;;;;;;;;;;;;;3.75;86.68;99931.42;106249;1260;124629;-87
2023/11/11 01:32:46;;;;;;;;;;;;;;;3.73;86.72;99937.42;106353;1263;62076;-87
2023/11/11 01:35:13;;;;;;;;;;;;;;;3.70;86.64;99936.63;106360;1263;61572;-87
2023/11/11 01:37:40;;;;;;;;;;;;;;;3.68;86.55;99933.74;106431;1261;124765;-87
2023/11/11 01:40:06;;;;;;;;;;;;;;;3.65;86.51;99934.52;106309;1264;66323;-87
2023/11/11 01:42:33;;;;;;;;;;;;;;;3.63;86.63;99933.03;106418;1259;123666;-87
2023/11/11 01:45:00;;;;;;;;;;;;;;;3.62;86.57;99930.23;106202;1259;62083;-87
2023/11/11 01:47:27;;;;;;;;;;;;;;;3.62;86.70;99931.44;106347;1260;62094;-84
2023/11/11 01:49:53;;;;;;;;;;;;;;;3.61;86.72;99930.91;106363;1258;124105;-84
2023/11/11 01:52:20;;;;;;;;;;;;;;;3.61;86.85;99935.92;106301;1264;64230;-83
2023/11/11 01:54:47;;;;;;;;;;;;;;;3.60;86.86;99931.36;106307;1261;124663;-83
2023/11/11 01:57:13;;;;;;;;;;;;;;;3.57;86.81;99929.16;106255;1264;62120;-83
2023/11/11 01:59:40;;;;;;;;;;;;;;;3.55;86.70;99931.31;106234;1258;124806;-84
2023/11/11 02:02:07;;;;;;;;;;;;;;;3.53;86.69;99926.73;106315;1257;75513;-83
2023/11/11 02:04:33;;;;;;;;;;;;;;;3.53;86.71;99927.23;106460;1258;65111;-84
2023/11/11 02:07:00;;;;;;;;;;;;;;;3.53;86.88;99927.42;106101;1260;124167;-87
2023/11/11 02:09:27;;;;;;;;;;;;;;;3.53;86.90;99926.21;106237;1264;62187;-87
2023/11/11 02:11:56;;;;;;;;;;;;;;;3.53;87.03;99927.62;106210;1261;124909;-88
2023/11/11 02:14:23;;;;;;;;;;;;;;;3.53;87.03;99924.12;106279;1258;75481;-88
2023/11/11 02:16:50;;;;;;;;;;;;;;;3.52;87.14;99918.56;106372;1264;66048;-87
2023/11/11 02:19:17;;;;;;;;;;;;;;;3.52;87.17;99916.64;106194;1258;125219;-87
2023/11/11 02:21:44;;;;;;;;;;;;;;;3.52;87.26;99917.34;106228;1258;62135;-86
2023/11/11 02:24:10;;;;;;;;;;;;;;;3.52;87.36;99918.73;106229;1258;124432;-86
2023/11/11 02:26:37;;;;;;;;;;;;;;;3.53;87.37;99917.20;106155;1260;75510;-85
2023/11/11 02:29:04;;;;;;;;;;;;;;;3.52;87.32;99919.27;106161;1264;64979;-86
2023/11/11 02:31:31;;;;;;;;;;;;;;;3.52;87.28;99914.55;106312;1258;125222;-86
2023/11/11 02:33:57;;;;;;;;;;;;;;;3.52;87.29;99912.82;106403;1259;62054;-87
2023/11/11 02:36:24;;;;;;;;;;;;;;;3.51;87.32;99908.63;106168;1257;124881;-87
2023/11/11 02:38:51;;;;;;;;;;;;;;;3.51;87.42;99905.67;106404;1257;75471;-86
2023/11/11 02:41:17;;;;;;;;;;;;;;;3.49;87.33;99903.50;106324;1260;65016;-86
2023/11/11 02:43:44;;;;;;;;;;;;;;;3.47;87.36;99900.84;106466;1256;124720;-86
2023/11/11 02:46:11;;;;;;;;;;;;;;;3.46;87.60;99898.37;106404;1256;62166;-87
2023/11/11 02:48:37;;;;;;;;;;;;;;;3.45;87.52;99898.88;106443;1257;124664;-87
2023/11/11 02:51:04;;;;;;;;;;;;;;;3.44;87.62;99900.02;106424;1258;77418;-84
2023/11/11 02:53:31;;;;;;;;;;;;;;;3.43;87.56;99898.95;106360;1257;125315;-84
2023/11/11 02:55:57;;;;;;;;;;;;;;;3.42;87.57;99897.86;106593;1257;72611;-84
2023/11/11 02:58:25;;;;;;;;;;;;;;;3.42;87.70;99900.65;106395;1257;62136;-85
2023/11/11 03:00:54;;;;;;;;;;;;;;;3.41;87.70;99901.98;106341;1258;124903;-83
2023/11/11 03:03:21;;;;;;;;;;;;;;;3.41;87.73;99903.38;106522;1257;74191;-83
2023/11/11 03:05:49;;;;;;;;;;;;;;;3.40;87.76;99907.17;106397;1258;124920;-83
2023/11/11 03:08:16;;;;;;;;;;;;;;;3.40;87.85;99904.57;106389;1257;71446;-85
2023/11/11 03:10:43;;;;;;;;;;;;;;;3.39;87.87;99897.77;106312;1264;62437;-85
2023/11/11 03:13:10;;;;;;;;;;;;;;;3.38;87.88;99892.66;106335;1263;123513;-85
2023/11/11 03:15:37;;;;;;;;;;;;;;;3.35;87.89;99887.73;106581;1262;75514;-86
2023/11/11 03:18:04;;;;;;;;;;;;;;;3.34;87.85;99891.30;106338;1257;125055;-87
2023/11/11 03:20:31;;;;;;;;;;;;;;;3.33;87.96;99887.08;106427;1256;72028;-86
2023/11/11 03:22:58;;;;;;;;;;;;;;;3.33;87.86;99886.91;106449;1264;62442;-85
2023/11/11 03:25:25;;;;;;;;;;;;;;;3.31;87.84;99884.61;106434;1257;124609;-83
2023/11/11 03:27:52;;;;;;;;;;;;;;;3.30;87.93;99885.42;106549;1261;74154;-84
2023/11/11 03:30:18;;;;;;;;;;;;;;;3.28;87.89;99883.27;106542;1259;124794;-84
2023/11/11 03:32:45;;;;;;;;;;;;;;;3.27;87.98;99883.41;106454;1257;71898;-84
2023/11/11 03:35:12;;;;;;;;;;;;;;;3.26;87.98;99884.39;106428;1260;62067;-84
2023/11/11 03:37:38;;;;;;;;;;;;;;;3.25;87.90;99881.95;106399;1257;124787;-83
2023/11/11 03:40:06;;;;;;;;;;;;;;;3.24;87.89;99879.45;106610;1257;75492;-84
2023/11/11 03:42:33;;;;;;;;;;;;;;;3.23;88.08;99876.84;106483;1257;124799;-83
2023/11/11 03:45:00;;;;;;;;;;;;;;;3.23;88.03;99873.36;106358;1258;74372;-84
2023/11/11 03:47:26;;;;;;;;;;;;;;;3.23;88.03;99870.22;106453;1259;62230;-83
2023/11/11 03:49:53;;;;;;;;;;;;;;;3.24;88.18;99874.42;106448;1262;124590;-83
2023/11/11 03:52:20;;;;;;;;;;;;;;;3.25;88.26;99873.26;106513;1258;73792;-83
2023/11/11 03:54:46;;;;;;;;;;;;;;;3.27;88.47;99872.98;106231;1264;125633;-83
2023/11/11 03:57:13;;;;;;;;;;;;;;;3.30;88.83;99872.25;106225;1258;73148;-83
2023/11/11 03:59:40;;;;;;;;;;;;;;;3.34;88.81;99870.51;106325;1263;124481;-83
2023/11/11 04:02:06;;;;;;;;;;;;;;;3.39;89.08;99866.01;106400;1259;61978;-82
2023/11/11 04:04:33;;;;;;;;;;;;;;;3.46;89.20;99865.23;106371;1262;73860;-83
2023/11/11 04:06:59;;;;;;;;;;;;;;;3.53;89.39;99867.77;106308;1263;123751;-83
2023/11/11 04:09:30;;;;;;;;;;;;;;;3.60;89.42;99867.17;106533;1258;72725;-86
2023/11/11 04:11:56;;;;;;;;;;;;;;;3.66;89.57;99873.12;106469;1259;124931;-87
2023/11/11 04:14:23;;;;;;;;;;;;;;;3.72;89.51;99870.94;106390;1263;62040;-86
2023/11/11 04:16:49;;;;;;;;;;;;;;;3.79;89.60;99873.77;106407;1258;75561;-87
2023/11/11 04:19:16;;;;;;;;;;;;;;;3.83;89.56;99871.52;106226;1258;123870;-86
2023/11/11 04:21:47;;;;;;;;;;;;;;;3.87;89.54;99874.45;106294;1257;72747;-88
2023/11/11 04:24:14;;;;;;;;;;;;;;;3.92;89.52;99878.46;106252;1257;124915;-88
2023/11/11 04:26:41;;;;;;;;;;;;;;;3.96;89.63;99880.16;106359;1260;60210;-87
2023/11/11 04:29:07;;;;;;;;;;;;;;;3.99;89.51;99873.17;106539;1259;75582;-87
2023/11/11 04:31:34;;;;;;;;;;;;;;;4.03;89.49;99870.89;106319;1263;124753;-87
2023/11/11 04:34:00;;;;;;;;;;;;;;;4.06;89.37;99871.86;106342;1263;71389;-87
2023/11/11 04:36:27;;;;;;;;;;;;;;;4.10;89.16;99873.91;106374;1262;124687;-86
2023/11/11 04:38:54;;;;;;;;;;;;;;;4.12;88.91;99873.13;106375;1257;61999;-85
2023/11/11 04:41:21;;;;;;;;;;;;;;;4.15;88.99;99875.31;106371;1258;74195;-85
2023/11/11 04:43:47;;;;;;;;;;;;;;;4.15;88.69;99876.18;106187;1263;124621;-85
2023/11/11 04:46:14;;;;;;;;;;;;;;;4.12;88.45;99875.54;106319;1257;72672;-81
2023/11/11 04:48:42;;;;;;;;;;;;;;;4.06;88.09;99879.50;106334;1262;124945;-82
2023/11/11 04:51:08;;;;;;;;;;;;;;;3.98;88.06;99881.46;106471;1264;62073;-82
2023/11/11 04:53:35;;;;;;;;;;;;;;;3.90;87.83;99882.39;106380;1257;125147;-82
2023/11/11 04:56:03;;;;;;;;;;;;;;;3.82;87.79;99883.81;106508;1258;66455;-82
2023/11/11 04:58:29;;;;;;;;;;;;;;;3.74;87.75;99878.48;106445;1257;72777;-81
2023/11/11 05:00:56;;;;;;;;;;;;;;;3.68;87.77;99875.78;106410;1260;125097;-82
2023/11/11 05:03:23;;;;;;;;;;;;;;;3.62;87.55;99876.80;106299;1257;60156;-81
2023/11/11 05:05:49;;;;;;;;;;;;;;;3.55;87.53;99883.11;106279;1258;126210;-81
2023/11/11 05:08:16;;;;;;;;;;;;;;;3.47;87.38;99888.52;106410;1257;65192;-81
2023/11/11 05:10:43;;;;;;;;;;;;;;;3.39;87.35;99888.89;106535;1257;72747;-82
2023/11/11 05:13:09;;;;;;;;;;;;;;;3.30;87.07;99890.82;106330;1257;125130;-82
2023/11/11 05:15:42;;;;;;;;;;;;;;;3.22;86.93;99893.77;106544;1256;62089;-82
2023/11/11 05:18:09;;;;;;;;;;;;;;;3.14;86.92;99897.24;106262;1256;124935;-82
2023/11/11 05:20:36;;;;;;;;;;;;;;;3.08;87.07;99896.16;106428;1257;65308;-82
2023/11/11 05:23:03;;;;;;;;;;;;;;;3.04;87.15;99899.27;106612;1257;72880;-83
2023/11/11 05:25:29;;;;;;;;;;;;;;;3.01;87.19;99903.67;106515;1257;123504;-83
2023/11/11 05:27:57;;;;;;;;;;;;;;;3.01;87.22;99909.01;106523;1258;60157;-83
2023/11/11 05:30:25;;;;;;;;;;;;;;;2.99;87.38;99911.38;106401;1257;123523;-83
2023/11/11 05:32:52;;;;;;;;;;;;;;;2.99;87.12;99910.52;106708;1257;65736;-84
2023/11/11 05:35:19;;;;;;;;;;;;;;;2.99;87.19;99913.97;106580;1256;72712;-83
2023/11/11 05:37:47;;;;;;;;;;;;;;;2.99;87.35;99907.73;106347;1258;124714;-83
2023/11/11 05:40:18;;;;;;;;;;;;;;;2.97;87.24;99904.54;106348;1257;62063;-82
2023/11/11 05:42:47;;;;;;;;;;;;;;;2.94;87.31;99904.41;106385;1258;125283;-83
2023/11/11 05:45:17;;;;;;;;;;;;;;;2.92;87.07;99900.86;106498;1257;66489;-83
2023/11/11 05:47:44;;;;;;;;;;;;;;;2.86;86.86;99909.13;106281;1258;125057;-82
2023/11/11 05:50:13;;;;;;;;;;;;;;;2.81;87.08;99912.72;106557;1261;62209;-84
2023/11/11 05:52:41;;;;;;;;;;;;;;;2.76;87.13;99919.61;106463;1257;60067;-83
2023/11/11 05:55:11;;;;;;;;;;;;;;;2.70;86.87;99919.69;106164;1258;124992;-83
2023/11/11 05:57:38;;;;;;;;;;;;;;;2.65;86.86;99923.80;106561;1258;67985;-83
2023/11/11 06:00:09;;;;;;;;;;;;;;;2.59;86.72;99923.17;106377;1260;127945;-83
2023/11/11 06:02:35;;;;;;;;;;;;;;;2.53;86.63;99923.09;106460;1261;62171;-83
2023/11/11 06:05:02;;;;;;;;;;;;;;;2.49;86.89;99924.98;106495;1257;62162;-82
2023/11/11 06:07:29;;;;;;;;;;;;;;;2.49;87.03;99925.02;106551;1258;124865;-83
2023/11/11 06:09:56;;;;;;;;;;;;;;;2.54;87.21;99928.52;106550;1258;65562;-83
2023/11/11 06:12:22;;;;;;;;;;;;;;;2.58;87.32;99929.02;106510;1258;125442;-85
2023/11/11 06:14:49;;;;;;;;;;;;;;;2.63;87.40;99934.44;106356;1263;61920;-84
2023/11/11 06:17:16;;;;;;;;;;;;;;;2.66;87.43;99936.83;106409;1258;62041;-83
2023/11/11 06:19:42;;;;;;;;;;;;;;;2.66;87.35;99935.11;106134;1257;124997;-83
2023/11/11 06:22:09;;;;;;;;;;;;;;;2.66;87.26;99937.18;106558;1257;64761;-82
2023/11/11 06:24:36;;;;;;;;;;;;;;;2.65;87.35;99936.79;106226;1256;123627;-83
2023/11/11 06:27:03;;;;;;;;;;;;;;;2.64;87.33;99940.39;106419;1258;62113;-83
2023/11/11 06:29:29;;;;;;;;;;;;;;;2.61;87.22;99942.67;106370;1258;124878;-84
2023/11/11 06:31:56;;;;;;;;;;;;;;;2.59;87.08;99946.55;106584;1262;75493;-86
2023/11/11 06:34:23;;;;;;;;;;;;;;;2.57;87.09;99951.50;106452;1257;66270;-86
2023/11/11 06:36:50;;;;;;;;;;;;;;;2.57;87.01;99959.45;106474;1257;123683;-86
2023/11/11 06:39:16;;;;;;;;;;;;;;;2.57;86.97;99961.89;106417;1257;62185;-86
2023/11/11 06:41:43;;;;;;;;;;;;;;;2.59;87.37;99962.86;106265;1262;125045;-86
2023/11/11 06:44:10;;;;;;;;;;;;;;;2.63;87.27;99963.89;106547;1262;76032;-86
2023/11/11 06:46:36;;;;;;;;;;;;;;;2.65;87.32;99969.52;106512;1259;66210;-85
2023/11/11 06:49:03;;;;;;;;;;;;;;;2.67;87.30;99969.13;106331;1258;125177;-88
2023/11/11 06:51:30;;;;;;;;;;;;;;;2.68;87.24;99972.63;106463;1257;62169;-86
2023/11/11 06:53:57;;;;;;;;;;;;;;;2.69;87.16;99973.35;106449;1257;125240;-85
2023/11/11 06:56:23;;;;;;;;;;;;;;;2.74;87.49;99976.15;106581;1258;75528;-87
2023/11/11 06:58:50;;;;;;;;;;;;;;;2.80;87.45;99977.79;106435;1259;64991;-86
2023/11/11 07:01:22;;;;;;;;;;;;;;;2.82;87.38;99977.90;106447;1258;124654;-86
2023/11/11 07:03:49;;;;;;;;;;;;;;;2.87;87.53;99974.63;106371;1257;62575;-88
2023/11/11 07:06:22;;;;;;;;;;;;;;;2.93;87.47;99973.84;106363;1257;124049;-87
2023/11/11 07:08:50;;;;;;;;;;;;;;;2.99;87.52;99974.79;106489;1257;75669;-87
2023/11/11 07:11:17;;;;;;;;;;;;;;;3.04;87.61;99975.20;106467;1258;66100;-87
2023/11/11 07:13:44;;;;;;;;;;;;;;;3.09;87.48;99976.47;106300;1261;124764;-87
2023/11/11 07:16:12;;;;;;;;;;;;;;;3.13;87.42;99978.50;106492;1256;60190;-87
2023/11/11 07:18:40;;;;;;;;;;;;;;;3.17;87.50;99976.60;106372;1258;124700;-87
2023/11/11 07:21:06;;;;;;;;;;;;;;;3.26;87.73;99978.19;106359;1264;73209;-87
2023/11/11 07:23:33;;;;;;;;;;;;;;;3.37;87.91;99981.59;106246;1261;124967;-87
2023/11/11 07:26:00;;;;;;;;;;;;;;;3.45;87.79;99983.49;106584;1263;72605;-87
2023/11/11 07:28:27;;;;;;;;;;;;;;;3.52;87.64;99984.64;106652;1262;62112;-87
2023/11/11 07:30:54;;;;;;;;;;;;;;;3.60;87.78;99987.92;106557;1258;124764;-88
2023/11/11 07:33:20;;;;;;;;;;;;;;;3.67;87.68;99986.48;106599;1263;75510;-87
2023/11/11 07:35:47;;;;;;;;;;;;;;;3.75;87.64;99989.90;106413;1263;124067;-86
2023/11/11 07:38:14;;;;;;;;;;;;;;;3.84;87.75;99989.56;106589;1257;72708;-87
2023/11/11 07:40:41;;;;;;;;;;;;;;;3.94;87.73;99988.55;106348;1262;62234;-88
2023/11/11 07:43:08;;;;;;;;;;;;;;;4.01;87.71;99985.38;106334;1257;124787;-82
2023/11/11 07:45:34;;;;;;;;;;;;;;;4.09;87.69;99983.98;106537;1257;74273;-86
2023/11/11 07:48:01;;;;;;;;;;;;;;;4.16;87.65;99979.19;106362;1258;125137;-86
2023/11/11 07:50:29;;;;;;;;;;;;;;;4.22;87.83;99976.80;106603;1258;71476;-81
2023/11/11 07:52:56;;;;;;;;;;;;;;;4.28;87.82;99976.33;106399;1257;62198;-86
2023/11/11 07:55:23;;;;;;;;;;;;;;;4.34;87.83;99973.42;106400;1258;125096;-86
2023/11/11 07:57:50;;;;;;;;;;;;;;;4.41;87.98;99969.86;106498;1257;73431;-81
2023/11/11 08:00:18;;;;;;;;;;;;;;;4.49;88.13;99972.42;106222;1258;125013;-82
2023/11/11 08:02:45;;;;;;;;;;;;;;;4.56;88.22;99964.17;106451;1263;70253;-85
2023/11/11 08:05:11;;;;;;;;;;;;;;;4.63;88.22;99960.45;106649;1258;62107;-85
2023/11/11 08:07:38;;;;;;;;;;;;;;;4.72;88.28;99961.44;106601;1257;125421;-81
2023/11/11 08:10:06;;;;;;;;;;;;;;;4.80;88.40;99957.55;107050;1258;74738;-85
2023/11/11 08:12:33;;;;;;;;;;;;;;;4.86;88.27;99960.54;106776;1257;124915;-86
2023/11/11 08:15:00;;;;;;;;;;;;;;;4.93;88.30;99957.31;106904;1256;71395;-87
2023/11/11 08:17:27;;;;;;;;;;;;;;;5.00;88.34;99958.25;106513;1256;62145;-82
2023/11/11 08:19:53;;;;;;;;;;;;;;;5.06;88.31;99953.58;106283;1258;124976;-82
2023/11/11 08:22:20;;;;;;;;;;;;;;;5.14;88.38;99953.32;106330;1259;76695;-82
2023/11/11 08:24:47;;;;;;;;;;;;;;;5.21;88.38;99957.77;106404;1258;124997;-89
2023/11/11 08:27:14;;;;;;;;;;;;;;;5.29;88.40;99959.92;106690;1258;72852;-91
2023/11/11 08:29:41;;;;;;;;;;;;;;;5.37;88.41;99957.77;106432;1257;125169;-83
2023/11/11 08:32:08;;;;;;;;;;;;;;;5.47;88.53;99959.30;106336;1263;61955;-82
2023/11/11 08:34:34;;;;;;;;;;;;;;;5.56;88.57;99958.56;106420;1259;76413;-89
2023/11/11 08:37:04;;;;;;;;;;;;;;;5.67;88.74;99956.63;106517;1258;124800;-89
2023/11/11 08:39:30;;;;;;;;;;;;;;;5.77;88.70;99953.98;106641;1259;72726;-90
2023/11/11 08:41:57;;;;;;;;;;;;;;;5.86;88.70;99947.98;106425;1263;125737;-84
2023/11/11 08:44:23;;;;;;;;;;;;;;;5.94;88.68;99949.86;106089;1261;62062;-87
2023/11/11 08:46:50;;;;;;;;;;;;;;;6.03;88.71;99947.54;106865;1257;75354;-88
2023/11/11 08:49:17;;;;;;;;;;;;;;;6.11;88.73;99951.40;106412;1259;123682;-89
2023/11/11 08:51:43;;;;;;;;;;;;;;;6.20;88.82;99951.48;106532;1257;72710;-87
2023/11/11 08:54:10;;;;;;;;;;;;;;;6.28;88.79;99953.13;106485;1261;125264;-88
2023/11/11 08:56:37;;;;;;;;;;;;;;;6.38;88.85;99954.46;106554;1257;62165;-87
2023/11/11 08:59:04;;;;;;;;;;;;;;;6.48;88.88;99957.54;106586;1258;75610;-88
2023/11/11 09:01:32;;;;;;;;;;;;;;;6.57;88.90;99958.85;106518;1257;125169;-88
2023/11/11 09:04:00;;;;;;;;;;;;;;;6.66;88.88;99957.70;106552;1257;72726;-87
2023/11/11 09:06:27;;;;;;;;;;;;;;;6.75;88.87;99958.48;106488;1257;124850;-83
2023/11/11 09:08:54;;;;;;;;;;;;;;;6.85;88.77;99961.17;106573;1257;62008;-82
2023/11/11 09:11:21;;;;;;;;;;;;;;;6.93;88.80;99961.74;106749;1257;73849;-83
2023/11/11 09:13:47;;;;;;;;;;;;;;;7.01;88.65;99963.01;106367;1262;124960;-83
2023/11/11 09:16:15;;;;;;;;;;;;;;;7.09;88.62;99961.30;106323;1261;71575;-83
2023/11/11 09:18:42;;;;;;;;;;;;;;;7.17;88.49;99956.10;106248;1257;124853;-82
2023/11/11 09:21:09;;;;;;;;;;;;;;;7.24;88.35;99957.49;106301;1261;208153;-83
2023/11/11 09:23:36;;;;;;;;;;;;;;;7.30;88.22;99956.61;106333;1258;125300;-83
2023/11/11 09:26:05;;;;;;;;;;;;;;;7.37;88.25;99952.42;106480;1261;66134;-78
2023/11/11 09:28:35;;;;;;;;;;;;;;;7.46;88.30;99950.02;106395;1258;72680;-78
2023/11/11 09:31:02;;;;;;;;;;;;;;;7.54;88.27;99950.05;106362;1258;124918;-83
2023/11/11 09:33:30;;;;;;;;;;;;;;;7.63;88.13;99952.90;106536;1257;60644;-79
2023/11/11 09:35:57;;;;;;;;;;;;;;;7.71;88.01;99952.36;106249;1259;124962;-80
2023/11/11 09:38:24;;;;;;;;;;;;;;;7.78;87.89;99950.27;106604;1257;64830;-80
2023/11/11 09:40:50;;;;;;;;;;;;;;;7.86;87.87;99952.73;106354;1257;72725;-82
2023/11/11 09:43:18;;;;;;;;;;;;;;;7.94;87.75;99952.58;106349;1259;124736;-81
2023/11/11 09:45:45;;;;;;;;;;;;;;;8.03;87.59;99954.48;106572;1257;62091;-89
2023/11/11 09:48:12;;;;;;;;;;;;;;;8.11;87.53;99957.13;106526;1258;125131;-90
2023/11/11 09:50:39;;;;;;;;;;;;;;;8.18;87.37;99958.51;106550;1261;64659;-89
2023/11/11 09:53:05;;;;;;;;;;;;;;;8.24;87.31;99956.20;106582;1263;71439;-89
2023/11/11 09:55:32;;;;;;;;;;;;;;;8.31;87.27;99952.49;106534;1259;125072;-89
2023/11/11 09:57:59;;;;;;;;;;;;;;;8.38;87.26;99949.85;106539;1257;62105;-89
2023/11/11 10:00:27;;;;;;;;;;;;;;;8.45;87.24;99946.70;106498;1256;124783;-89
2023/11/11 10:02:53;;;;;;;;;;;;;;;8.50;87.07;99943.83;106502;1257;64964;-88
2023/11/11 10:05:20;;;;;;;;;;;;;;;8.55;87.00;99940.09;106436;1258;71227;-90
2023/11/11 10:07:47;;;;;;;;;;;;;;;8.62;86.92;99938.83;106305;1257;124795;-89
2023/11/11 10:10:14;;;;;;;;;;;;;;;8.69;86.73;99936.49;106388;1262;62064;-84
2023/11/11 10:12:41;;;;;;;;;;;;;;;8.71;86.56;99937.96;106462;1261;124896;-84
2023/11/11 10:15:08;;;;;;;;;;;;;;;8.74;86.49;99937.83;106477;1257;66360;-85
2023/11/11 10:17:35;;;;;;;;;;;;;;;8.79;86.32;99937.58;106500;1264;125383;-86
2023/11/11 10:20:04;;;;;;;;;;;;;;;8.84;86.19;99936.61;106539;1259;62164;-88
2023/11/11 10:22:30;;;;;;;;;;;;;;;8.88;85.97;99934.77;106812;1263;62152;-86
2023/11/11 10:24:57;;;;;;;;;;;;;;;8.93;85.84;99928.39;106411;1257;125047;-88
2023/11/11 10:27:24;;;;;;;;;;;;;;;8.97;85.70;99924.61;106565;1256;64962;-86
2023/11/11 10:29:51;;;;;;;;;;;;;;;9.02;85.53;99925.23;106471;1262;125064;-85
2023/11/11 10:32:18;;;;;;;;;;;;;;;9.07;85.46;99923.55;106577;1263;61976;-84
2023/11/11 10:34:44;;;;;;;;;;;;;;;9.12;85.38;99923.13;106347;1257;61998;-83
2023/11/11 10:37:11;;;;;;;;;;;;;;;9.17;85.22;99921.64;106302;1263;124064;-83
2023/11/11 10:39:39;;;;;;;;;;;;;;;9.22;84.89;99917.88;106332;1263;66554;-83
2023/11/11 10:42:06;;;;;;;;;;;;;;;9.25;84.81;99914.25;106215;1264;124980;-83
2023/11/11 10:44:32;;;;;;;;;;;;;;;9.28;84.70;99917.63;106408;1258;62091;-82
2023/11/11 10:46:59;;;;;;;;;;;;;;;9.28;84.52;99913.77;106401;1257;62127;-82
2023/11/11 10:49:27;;;;;;;;;;;;;;;9.29;84.39;99912.04;106418;1261;124090;-86
2023/11/11 10:51:56;;;;;;;;;;;;;;;9.30;84.36;99909.59;106418;1258;64165;-86
2023/11/11 10:54:23;;;;;;;;;;;;;;;9.31;84.28;99907.36;106364;1256;124127;-83
2023/11/11 10:56:51;;;;;;;;;;;;;;;9.33;84.30;99907.39;106468;1257;61289;-85
2023/11/11 10:59:18;;;;;;;;;;;;;;;9.34;84.19;99910.71;106489;1262;60244;-85
2023/11/11 11:01:45;;;;;;;;;;;;;;;9.35;83.93;99912.30;106288;1258;124428;-80
2023/11/11 11:04:12;;;;;;;;;;;;;;;9.34;84.00;99912.13;106376;1263;65338;-80
2023/11/11 11:06:48;;;;;;;;;;;;;;;9.32;83.80;99912.27;106184;1257;125231;-80
2023/11/11 11:09:22;;;;;;;;;;;;;;;9.33;83.81;99913.67;106573;1258;62084;-80
2023/11/11 11:11:58;;;;;;;;;;;;;;;9.36;83.87;99914.80;106304;1261;124883;-80
2023/11/11 11:14:27;;;;;;;;;;;;;;;9.39;83.76;99916.58;106502;1256;74193;-79
2023/11/11 11:16:54;;;;;;;;;;;;;;;9.41;83.63;99920.64;106262;1261;65829;-80
2023/11/11 11:19:21;;;;;;;;;;;;;;;9.44;83.64;99925.23;106182;1256;125021;-79
2023/11/11 11:21:49;;;;;;;;;;;;;;;9.46;83.51;99927.38;106272;1264;60640;-85
2023/11/11 11:24:16;;;;;;;;;;;;;;;9.48;83.43;99927.95;106315;1258;124784;-85
2023/11/11 11:26:43;;;;;;;;;;;;;;;9.50;83.42;99930.60;106566;1258;76306;-85
2023/11/11 11:29:13;;;;;;;;;;;;;;;9.53;83.42;99929.77;106669;1256;65040;-85
2023/11/11 11:31:59;;;;;;;;;;;;;;;9.56;83.27;99930.86;106494;1261;124734;-85
2023/11/11 11:34:26;;;;;;;;;;;;;;;9.57;83.20;99931.40;106546;1261;62075;-85
2023/11/11 11:36:56;;;;;;;;;;;;;;;9.58;83.20;99927.20;106464;1258;125140;-84
2023/11/11 11:39:27;;;;;;;;;;;;;;;9.60;83.12;99927.41;106553;1258;74304;-85
2023/11/11 11:41:56;;;;;;;;;;;;;;;9.62;82.99;99919.04;106318;1264;125468;-85
2023/11/11 11:44:23;;;;;;;;;;;;;;;9.66;83.01;99915.79;106524;1262;72860;-86
2023/11/11 11:46:49;;;;;;;;;;;;;;;9.68;82.77;99916.67;106379;1261;62164;-86
2023/11/11 11:49:16;;;;;;;;;;;;;;;9.70;82.68;99917.23;106383;1260;124951;-87
2023/11/11 11:51:52;;;;;;;;;;;;;;;9.70;82.51;99917.06;106493;1259;74163;-86
2023/11/11 11:54:19;;;;;;;;;;;;;;;9.69;82.44;99914.23;106250;1258;125066;-85
2023/11/11 11:56:46;;;;;;;;;;;;;;;9.70;82.22;99913.55;106416;1261;72812;-86
2023/11/11 11:59:15;;;;;;;;;;;;;;;9.71;82.15;99909.02;106323;1263;62044;-85
2023/11/11 12:01:42;;;;;;;;;;;;;;;9.71;82.14;99911.13;106454;1258;124953;-85
2023/11/11 12:04:09;;;;;;;;;;;;;;;9.71;81.90;99908.85;106436;1262;75475;-86
2023/11/11 12:06:36;;;;;;;;;;;;;;;9.70;81.65;99905.16;106284;1261;124921;-87
2023/11/11 12:09:07;;;;;;;;;;;;;;;9.68;81.55;99908.98;106393;1261;71487;-88
2023/11/11 12:11:34;;;;;;;;;;;;;;;9.66;81.48;99906.14;106359;1258;125001;-89
2023/11/11 12:14:04;;;;;;;;;;;;;;;9.67;81.50;99911.23;106423;1260;61866;-82
2023/11/11 12:16:47;;;;;;;;;;;;;;;9.66;81.26;99907.71;106449;1259;73048;-83
2023/11/11 12:19:14;;;;;;;;;;;;;;;9.59;81.16;99904.98;106085;1265;124176;-84
2023/11/11 12:21:49;;;;;;;;;;;;;;;9.52;81.10;99902.09;106327;1258;71178;-83
2023/11/11 12:24:16;;;;;;;;;;;;;;;9.45;81.05;99902.84;106330;1261;124041;-83
2023/11/11 12:26:43;;;;;;;;;;;;;;;9.37;80.93;99904.46;106351;1258;62136;-83
2023/11/11 12:29:10;;;;;;;;;;;;;;;9.27;80.76;99900.63;106428;1259;74508;-83
2023/11/11 12:32:06;;;;;;;;;;;;;;;9.18;80.73;99902.04;106303;1262;124046;-84
2023/11/11 12:34:33;;;;;;;;;;;;;;;9.05;80.79;99904.11;106213;1264;71435;-82
2023/11/11 12:37:00;;;;;;;;;;;;;;;8.94;80.75;99908.29;106155;1266;124287;-81
2023/11/11 12:39:26;;;;;;;;;;;;;;;8.83;80.81;99908.43;106466;1258;62068;-81
2023/11/11 12:41:53;;;;;;;;;;;;;;;8.72;80.87;99907.17;106147;1258;124325;-81
2023/11/11 12:44:20;;;;;;;;;;;;;;;8.62;80.94;99905.60;106125;1264;64955;-80